Time;durP1;ratioP1;P1;durP2;ratioP2;P2;SDS_P1;SDS_P2;PMS_P1;PMS_P2;Temp;Humidity;BMP_temperature;BMP_pressure;BME280_temperature;BME280_humidity;BME280_pressure;Samples;Min_cycle;Max_cycle;Signal;HPM_P1;HPM_P2
2021/07/28 00:00:49;;;;;;;0.00;0.00;;;26.00;55.30;;;;;;5036263;28;20041;-90
2021/07/28 00:03:18;;;;;;;0.00;0.00;;;25.90;55.30;;;;;;5034766;28;20491;-89
2021/07/28 00:05:44;;;;;;;0.00;0.00;;;25.80;55.40;;;;;;5035895;28;20116;-91
2021/07/28 00:08:10;;;;;;;0.00;0.00;;;25.80;55.60;;;;;;5034908;28;20072;-91
2021/07/28 00:10:35;;;;;;;0.00;0.00;;;25.70;55.70;;;;;;5038717;28;20045;-90
2021/07/28 00:13:01;;;;;;;0.00;0.00;;;25.70;55.90;;;;;;5053442;28;20025;-90
2021/07/28 00:15:27;;;;;;;0.00;0.00;;;25.50;56.00;;;;;;5049261;28;20022;-90
2021/07/28 00:17:57;;;;;;;0.00;0.00;;;25.50;56.90;;;;;;5035070;28;20033;-91
2021/07/28 00:23:14;;;;;;;0.00;0.00;;;25.30;56.70;;;;;;5036195;28;20048;-91
2021/07/28 00:25:41;;;;;;;0.00;0.00;;;25.30;57.00;;;;;;5045728;28;20055;-90
2021/07/28 00:28:09;;;;;;;0.00;0.00;;;25.20;57.30;;;;;;5051769;28;20030;-90
2021/07/28 00:30:35;;;;;;;0.00;0.00;;;25.10;57.60;;;;;;5035279;28;20033;-90
2021/07/28 00:33:01;;;;;;;0.00;0.00;;;25.10;57.90;;;;;;5052609;28;20421;-89
2021/07/28 00:35:27;;;;;;;0.00;0.00;;;25.00;58.10;;;;;;5034539;28;20390;-91
2021/07/28 00:37:55;;;;;;;0.00;0.00;;;25.00;58.30;;;;;;5035402;28;20071;-90
2021/07/28 00:40:21;;;;;;;0.00;0.00;;;25.00;58.50;;;;;;5035887;28;20033;-91
2021/07/28 00:42:46;;;;;;;0.00;0.00;;;24.90;58.70;;;;;;5049316;28;20118;-88
2021/07/28 00:45:13;;;;;;;0.00;0.00;;;24.90;59.00;;;;;;5054567;28;20009;-91
2021/07/28 00:47:39;;;;;;;0.00;0.00;;;24.90;59.30;;;;;;5055604;28;20021;-91
2021/07/28 00:50:05;;;;;;;0.00;0.00;;;24.80;59.50;;;;;;5046999;28;20026;-91
2021/07/28 00:52:37;;;;;;;0.00;0.00;;;24.80;59.80;;;;;;5041106;28;20083;-91
2021/07/28 00:55:08;;;;;;;0.00;0.00;;;24.80;60.00;;;;;;5051828;28;20076;-91
2021/07/28 00:57:35;;;;;;;0.00;0.00;;;24.70;60.10;;;;;;5052712;28;20057;-91
2021/07/28 01:00:02;;;;;;;0.00;0.00;;;24.70;60.30;;;;;;5064727;28;20494;-91
2021/07/28 01:02:28;;;;;;;0.00;0.00;;;24.60;60.50;;;;;;5074244;28;20040;-90
2021/07/28 01:04:54;;;;;;;0.00;0.00;;;24.60;60.80;;;;;;5060031;28;20014;-90
2021/07/28 01:07:20;;;;;;;0.00;0.00;;;24.60;61.10;;;;;;5056786;28;20026;-91
2021/07/28 01:09:45;;;;;;;0.00;0.00;;;24.50;61.30;;;;;;5055583;28;20052;-91
2021/07/28 01:12:11;;;;;;;0.10;0.10;;;24.50;61.40;;;;;;5059609;28;20043;-91
2021/07/28 01:14:44;;;;;;;0.05;0.05;;;24.50;61.60;;;;;;5059321;28;20075;-91
2021/07/28 01:17:12;;;;;;;0.00;0.00;;;24.50;61.80;;;;;;5036486;28;20029;-91
2021/07/28 01:19:45;;;;;;;0.00;0.00;;;24.40;62.00;;;;;;5037075;28;20497;-91
2021/07/28 01:22:11;;;;;;;0.00;0.00;;;24.40;62.40;;;;;;5055888;28;20030;-90
2021/07/28 01:24:37;;;;;;;0.00;0.00;;;24.30;62.60;;;;;;5040770;28;20048;-90
2021/07/28 01:27:05;;;;;;;0.00;0.00;;;24.20;63.00;;;;;;5040002;28;20116;-91
2021/07/28 01:29:31;;;;;;;0.00;0.00;;;24.10;63.30;;;;;;5038420;28;20029;-90
2021/07/28 01:31:57;;;;;;;0.10;0.10;;;24.10;63.50;;;;;;5039532;28;20470;-91
2021/07/28 01:34:26;;;;;;;0.00;0.00;;;24.10;63.60;;;;;;5037393;28;20026;-91
2021/07/28 01:36:56;;;;;;;0.00;0.00;;;24.00;64.00;;;;;;5035915;28;20025;-89
2021/07/28 01:39:22;;;;;;;0.00;0.00;;;23.90;64.20;;;;;;5036150;28;20040;-91
2021/07/28 01:41:59;;;;;;;0.00;0.00;;;23.90;64.40;;;;;;5036636;28;20471;-91
2021/07/28 01:44:36;;;;;;;0.00;0.00;;;23.90;64.50;;;;;;5037056;28;20029;-90
2021/07/28 01:47:04;;;;;;;0.00;0.00;;;23.90;64.60;;;;;;5045370;28;20014;-91
2021/07/28 01:49:35;;;;;;;0.00;0.00;;;23.90;64.60;;;;;;5046552;28;20501;-90
2021/07/28 01:52:01;;;;;;;0.00;0.00;;;23.90;64.90;;;;;;5037314;28;20082;-91
2021/07/28 01:54:27;;;;;;;0.00;0.00;;;23.90;64.90;;;;;;5053164;28;20030;-91
2021/07/28 01:56:53;;;;;;;0.00;0.00;;;23.90;65.00;;;;;;5060390;28;20005;-90
2021/07/28 01:59:21;;;;;;;0.00;0.00;;;23.90;65.20;;;;;;5058739;28;20047;-91
2021/07/28 02:01:46;;;;;;;0.00;0.00;;;23.90;65.20;;;;;;5035723;28;20418;-90
2021/07/28 02:04:12;;;;;;;0.00;0.00;;;23.90;65.30;;;;;;5036642;28;20037;-90
2021/07/28 02:06:38;;;;;;;0.00;0.00;;;23.90;65.40;;;;;;5052264;28;20386;-91
2021/07/28 02:09:06;;;;;;;0.00;0.00;;;23.80;65.40;;;;;;5052066;28;20030;-90
2021/07/28 02:11:41;;;;;;;0.00;0.00;;;23.80;65.70;;;;;;5037371;28;20382;-91
2021/07/28 02:14:09;;;;;;;0.00;0.00;;;23.80;65.80;;;;;;5038945;28;20033;-91
2021/07/28 02:16:35;;;;;;;0.00;0.00;;;23.80;66.00;;;;;;5036978;28;20029;-90
2021/07/28 02:19:19;;;;;;;0.00;0.00;;;23.80;66.00;;;;;;5037878;28;20056;-92
2021/07/28 02:21:45;;;;;;;0.00;0.00;;;23.80;66.00;;;;;;5050824;28;20030;-91
2021/07/28 02:24:10;;;;;;;0.00;0.00;;;23.80;66.20;;;;;;5056895;28;20033;-91
2021/07/28 02:26:36;;;;;;;0.00;0.00;;;23.80;66.20;;;;;;5038025;28;20083;-89
2021/07/28 02:29:02;;;;;;;0.00;0.00;;;23.80;66.30;;;;;;5043515;28;20030;-90
2021/07/28 02:31:28;;;;;;;0.05;0.05;;;23.80;66.20;;;;;;5047464;28;20097;-90
2021/07/28 02:33:54;;;;;;;0.00;0.00;;;23.80;66.20;;;;;;5041320;28;20068;-91
2021/07/28 02:36:29;;;;;;;0.00;0.00;;;23.80;66.20;;;;;;5057664;28;20034;-89
2021/07/28 02:38:55;;;;;;;0.00;0.00;;;23.80;66.20;;;;;;5055785;28;20038;-90
2021/07/28 02:41:21;;;;;;;0.10;0.00;;;23.80;66.20;;;;;;5041708;28;20049;-89
2021/07/28 02:43:46;;;;;;;0.00;0.00;;;23.80;66.90;;;;;;5035274;28;20454;-89
2021/07/28 02:46:12;;;;;;;0.00;0.00;;;23.80;66.40;;;;;;5035133;28;20025;-89
2021/07/28 02:48:38;;;;;;;0.00;0.00;;;23.80;66.50;;;;;;5035683;28;20072;-90
2021/07/28 02:51:03;;;;;;;0.10;0.10;;;23.70;66.60;;;;;;5037701;28;20087;-90
2021/07/28 02:53:29;;;;;;;0.00;0.00;;;23.70;66.60;;;;;;5057349;28;20030;-91
2021/07/28 02:55:55;;;;;;;0.00;0.00;;;23.80;66.90;;;;;;5039453;28;20467;-90
2021/07/28 02:58:21;;;;;;;0.00;0.00;;;23.70;67.00;;;;;;5038468;28;20471;-91
2021/07/28 03:00:47;;;;;;;0.00;0.00;;;23.60;67.00;;;;;;5036284;28;20121;-90
2021/07/28 03:03:12;;;;;;;0.00;0.00;;;23.70;67.10;;;;;;5037912;28;20045;-90
2021/07/28 03:05:38;;;;;;;0.03;0.03;;;23.60;67.00;;;;;;5041022;28;20034;-90
2021/07/28 03:08:04;;;;;;;0.00;0.00;;;23.60;67.10;;;;;;5041368;28;20036;-90
2021/07/28 03:10:30;;;;;;;0.10;0.10;;;23.60;67.10;;;;;;5046926;28;20036;-89
2021/07/28 03:12:56;;;;;;;0.00;0.00;;;23.60;67.10;;;;;;5052734;28;20010;-91
2021/07/28 03:15:22;;;;;;;0.00;0.00;;;23.60;67.20;;;;;;5036625;28;20037;-90
2021/07/28 03:17:48;;;;;;;0.00;0.00;;;23.50;67.20;;;;;;5036209;28;20103;-90
2021/07/28 03:20:14;;;;;;;0.00;0.00;;;23.60;67.30;;;;;;5052900;28;20474;-90
2021/07/28 03:22:43;;;;;;;0.00;0.00;;;23.60;67.30;;;;;;5047546;28;20078;-91
2021/07/28 03:25:09;;;;;;;0.00;0.00;;;23.60;67.30;;;;;;5036451;28;20379;-90
2021/07/28 03:27:35;;;;;;;0.00;0.00;;;23.60;67.30;;;;;;5036972;28;20030;-89
2021/07/28 03:30:10;;;;;;;0.00;0.00;;;23.60;67.20;;;;;;5037821;28;20501;-91
2021/07/28 03:32:44;;;;;;;0.00;0.00;;;23.70;67.10;;;;;;5036799;28;20429;-92
2021/07/28 03:35:10;;;;;;;0.00;0.00;;;23.70;67.00;;;;;;5036725;28;20037;-89
2021/07/28 03:37:36;;;;;;;0.00;0.00;;;23.70;67.00;;;;;;5046020;28;20030;-87
2021/07/28 03:40:02;;;;;;;0.00;0.00;;;23.70;67.00;;;;;;5052594;28;20079;-88
2021/07/28 03:42:29;;;;;;;0.00;0.00;;;23.70;67.10;;;;;;5050222;28;20048;-88
2021/07/28 03:44:58;;;;;;;0.00;0.00;;;23.80;67.20;;;;;;5037686;28;20029;-90
2021/07/28 03:47:25;;;;;;;0.00;0.00;;;23.80;67.30;;;;;;5034807;28;20076;-88
2021/07/28 03:49:51;;;;;;;0.00;0.00;;;23.80;67.40;;;;;;5036411;28;20036;-88
2021/07/28 03:52:17;;;;;;;0.10;0.10;;;23.80;67.50;;;;;;5038918;28;20021;-88
2021/07/28 03:54:45;;;;;;;0.00;0.00;;;23.80;67.80;;;;;;5047378;28;20076;-89
2021/07/28 03:57:12;;;;;;;0.10;0.10;;;23.80;67.90;;;;;;5050760;28;20030;-89
2021/07/28 03:59:39;;;;;;;0.08;0.08;;;23.90;68.10;;;;;;5045517;28;20038;-88
2021/07/28 04:02:15;;;;;;;0.00;0.00;;;23.90;68.10;;;;;;5052202;28;20022;-92
2021/07/28 04:04:41;;;;;;;0.00;0.00;;;24.00;68.30;;;;;;5033440;28;20053;-89
2021/07/28 04:07:11;;;;;;;0.00;0.00;;;24.10;68.30;;;;;;5032759;28;20068;-89
2021/07/28 04:09:37;;;;;;;0.00;0.00;;;24.30;68.10;;;;;;5049955;28;20540;-88
2021/07/28 04:12:03;;;;;;;0.00;0.00;;;24.40;67.60;;;;;;5033133;28;20026;-89
2021/07/28 04:14:29;;;;;;;0.00;0.00;;;24.60;67.20;;;;;;5050335;28;20037;-88
2021/07/28 04:16:54;;;;;;;0.00;0.00;;;24.80;67.00;;;;;;5033485;28;20014;-88
2021/07/28 04:19:20;;;;;;;0.00;0.00;;;25.10;66.50;;;;;;5033681;28;20394;-89
2021/07/28 04:21:46;;;;;;;0.00;0.00;;;25.30;66.10;;;;;;5033686;28;20021;-89
2021/07/28 04:24:12;;;;;;;0.00;0.00;;;25.50;66.00;;;;;;5033967;28;20034;-88
2021/07/28 04:26:38;;;;;;;0.00;0.00;;;25.60;65.50;;;;;;5033950;28;20044;-89
2021/07/28 04:29:03;;;;;;;0.00;0.00;;;25.70;65.10;;;;;;5034180;28;20037;-89
2021/07/28 04:31:29;;;;;;;0.00;0.00;;;25.80;64.90;;;;;;5033273;28;20025;-89
2021/07/28 04:33:55;;;;;;;0.08;0.00;;;25.80;64.80;;;;;;5036806;28;20132;-89
2021/07/28 04:36:21;;;;;;;0.00;0.00;;;25.80;64.80;;;;;;5038180;28;20025;-90
2021/07/28 04:38:46;;;;;;;0.00;0.00;;;25.70;65.10;;;;;;5042909;28;20025;-90
2021/07/28 04:41:12;;;;;;;0.00;0.00;;;25.60;65.40;;;;;;5043583;28;20056;-90
2021/07/28 04:43:38;;;;;;;0.00;0.00;;;25.50;65.60;;;;;;5059464;28;20045;-89
2021/07/28 04:46:03;;;;;;;0.00;0.00;;;25.40;65.80;;;;;;5058008;28;20014;-89
2021/07/28 04:48:32;;;;;;;0.00;0.00;;;25.40;66.20;;;;;;5050160;28;20530;-90
2021/07/28 04:50:59;;;;;;;0.00;0.00;;;25.40;66.30;;;;;;5043379;28;20039;-89
2021/07/28 04:53:28;;;;;;;0.00;0.00;;;25.40;66.30;;;;;;5045895;28;20040;-89
2021/07/28 04:55:58;;;;;;;0.00;0.00;;;25.40;66.40;;;;;;5039037;28;20483;-88
2021/07/28 04:58:25;;;;;;;0.00;0.00;;;25.50;66.50;;;;;;5046544;28;20037;-89
2021/07/28 05:00:51;;;;;;;0.00;0.00;;;25.70;66.30;;;;;;5054237;28;20196;-88
2021/07/28 05:03:18;;;;;;;0.00;0.00;;;25.80;66.00;;;;;;5037935;28;20482;-88
2021/07/28 05:05:44;;;;;;;0.00;0.00;;;25.90;65.70;;;;;;5046386;28;20044;-88
2021/07/28 05:08:10;;;;;;;0.00;0.00;;;26.00;65.50;;;;;;5039704;28;20037;-89
2021/07/28 05:10:37;;;;;;;0.00;0.00;;;26.20;65.40;;;;;;5037368;28;20433;-89
2021/07/28 05:13:03;;;;;;;0.00;0.00;;;26.30;65.00;;;;;;5036811;28;20080;-89
2021/07/28 05:15:29;;;;;;;0.00;0.00;;;26.50;65.10;;;;;;5036738;28;20026;-88
2021/07/28 05:17:54;;;;;;;0.00;0.00;;;26.60;64.50;;;;;;5037021;28;20037;-91
2021/07/28 05:20:20;;;;;;;0.00;0.00;;;26.70;63.90;;;;;;5037028;28;20044;-89
2021/07/28 05:22:47;;;;;;;0.00;0.00;;;26.70;63.50;;;;;;5036267;28;20042;-89
2021/07/28 05:25:14;;;;;;;0.00;0.00;;;26.80;63.50;;;;;;5036490;28;20498;-88
2021/07/28 05:27:40;;;;;;;0.00;0.00;;;26.90;63.50;;;;;;5036758;28;20475;-88
2021/07/28 05:30:07;;;;;;;0.00;0.00;;;27.00;63.40;;;;;;5037473;28;20018;-88
2021/07/28 05:32:33;;;;;;;0.00;0.00;;;27.00;63.40;;;;;;5042313;28;20057;-88
2021/07/28 05:34:59;;;;;;;0.00;0.00;;;27.00;63.50;;;;;;5052954;28;20029;-88
2021/07/28 05:37:25;;;;;;;0.00;0.00;;;26.90;63.60;;;;;;5041208;28;20384;-89
2021/07/28 05:39:51;;;;;;;0.00;0.00;;;26.70;63.60;;;;;;5038207;28;20056;-88
2021/07/28 05:42:17;;;;;;;0.00;0.00;;;26.60;63.90;;;;;;5038459;28;20425;-88
2021/07/28 05:44:43;;;;;;;0.00;0.00;;;26.40;64.40;;;;;;5038295;28;20111;-87
2021/07/28 05:47:09;;;;;;;0.00;0.00;;;26.40;64.80;;;;;;5038594;28;20029;-87
2021/07/28 05:49:35;;;;;;;0.00;0.00;;;26.40;65.20;;;;;;5039007;28;20103;-88
2021/07/28 05:52:00;;;;;;;0.00;0.00;;;26.40;65.40;;;;;;5037305;28;20474;-88
2021/07/28 05:54:26;;;;;;;0.00;0.00;;;26.40;65.30;;;;;;5040895;28;20390;-88
2021/07/28 05:56:52;;;;;;;0.55;0.00;;;26.60;64.80;;;;;;5044060;28;20033;-88
2021/07/28 05:59:18;;;;;;;0.00;0.00;;;26.60;64.70;;;;;;5037673;28;20041;-87
2021/07/28 06:01:44;;;;;;;0.00;0.00;;;26.60;65.20;;;;;;5038863;28;20018;-89
2021/07/28 06:04:10;;;;;;;0.00;0.00;;;26.60;64.50;;;;;;5045113;28;20052;-88
2021/07/28 06:06:35;;;;;;;0.00;0.00;;;26.60;64.40;;;;;;5036867;28;20376;-89
2021/07/28 06:09:02;;;;;;;0.00;0.00;;;26.60;64.30;;;;;;5036854;28;20087;-86
2021/07/28 06:11:28;;;;;;;0.00;0.00;;;26.70;64.30;;;;;;5035836;28;20025;-88
2021/07/28 06:13:54;;;;;;;0.00;0.00;;;26.70;63.80;;;;;;5038233;28;20033;-90
2021/07/28 06:16:20;;;;;;;0.00;0.00;;;26.60;63.50;;;;;;5038684;28;20017;-89
2021/07/28 06:18:46;;;;;;;0.00;0.00;;;26.60;63.50;;;;;;5038292;28;20073;-89
2021/07/28 06:21:11;;;;;;;0.10;0.10;;;26.50;63.40;;;;;;5044204;28;20021;-89
2021/07/28 06:23:37;;;;;;;0.00;0.00;;;26.40;63.70;;;;;;5045596;28;20044;-90
2021/07/28 06:26:03;;;;;;;0.00;0.00;;;26.40;63.90;;;;;;5068454;28;20029;-90
2021/07/28 06:28:29;;;;;;;0.00;0.00;;;26.40;64.00;;;;;;5054197;28;20046;-90
2021/07/28 06:30:55;;;;;;;0.20;0.00;;;26.30;65.10;;;;;;5045987;28;20022;-89
2021/07/28 06:33:22;;;;;;;0.00;0.00;;;26.10;66.10;;;;;;5040737;28;20040;-90
2021/07/28 06:35:48;;;;;;;0.00;0.00;;;25.90;66.50;;;;;;5041535;28;20139;-90
2021/07/28 06:38:15;;;;;;;0.00;0.00;;;25.80;67.00;;;;;;5053088;28;20049;-89
2021/07/28 06:40:47;;;;;;;0.00;0.00;;;25.70;67.70;;;;;;5048995;28;20025;-92
2021/07/28 06:43:14;;;;;;;0.00;0.00;;;25.50;67.90;;;;;;5055505;28;20568;-92
2021/07/28 06:45:41;;;;;;;0.00;0.00;;;25.40;68.30;;;;;;5039985;28;20197;-92
2021/07/28 06:48:07;;;;;;;0.00;0.00;;;25.30;68.80;;;;;;5041522;28;20047;-92
2021/07/28 06:50:52;;;;;;;0.00;0.00;;;25.20;69.20;;;;;;5039967;28;20479;-92
2021/07/28 06:53:17;;;;;;;;;;;25.10;71.20;;;;;;5038207;28;20037;-90
2021/07/28 06:59:01;;;;;;;0.00;0.00;;;24.50;73.80;;;;;;5043261;28;20056;-94
2021/07/28 07:01:26;;;;;;;0.00;0.00;;;24.20;75.90;;;;;;5041814;28;20046;-92
2021/07/28 07:03:55;;;;;;;0.00;0.00;;;23.90;79.30;;;;;;5037844;28;20033;-94
2021/07/28 07:06:21;;;;;;;0.00;0.00;;;23.60;81.10;;;;;;5039453;28;20036;-92
2021/07/28 07:08:47;;;;;;;0.00;0.00;;;23.10;83.90;;;;;;5038910;28;20026;-91
2021/07/28 07:11:13;;;;;;;0.00;0.00;;;22.70;87.50;;;;;;5039470;28;20025;-91
2021/07/28 07:13:39;;;;;;;0.03;0.03;;;22.40;91.40;;;;;;5037070;28;20017;-89
2021/07/28 07:16:05;;;;;;;0.00;0.00;;;21.90;94.60;;;;;;5035780;28;20112;-89
2021/07/28 07:18:34;;;;;;;0.05;0.05;;;21.50;96.70;;;;;;5036674;28;20498;-90
2021/07/28 07:21:00;;;;;;;0.00;0.00;;;21.20;99.90;;;;;;5034868;28;20022;-90
2021/07/28 07:23:26;;;;;;;0.00;0.00;;;20.80;99.90;;;;;;5037818;28;20064;-90
2021/07/28 07:25:59;;;;;;;0.00;0.00;;;20.50;99.90;;;;;;5042106;28;20018;-91
2021/07/28 07:28:29;;;;;;;0.10;0.10;;;20.40;99.90;;;;;;5046887;28;20425;-90
2021/07/28 07:30:54;;;;;;;0.00;0.00;;;20.30;99.90;;;;;;5046477;28;20018;-88
2021/07/28 07:36:23;;;;;;;0.00;0.00;;;20.30;99.90;;;;;;5056154;28;20088;-90
2021/07/28 07:38:54;;;;;;;0.00;0.00;;;20.30;99.90;;;;;;5050083;28;20045;-90
2021/07/28 07:41:20;;;;;;;0.10;0.10;;;20.40;99.90;;;;;;5049550;28;20040;-91
2021/07/28 07:43:49;;;;;;;0.05;0.05;;;20.40;99.90;;;;;;5037204;28;20041;-90
2021/07/28 07:46:15;;;;;;;0.10;0.10;;;20.40;99.90;;;;;;5036202;28;20026;-89
2021/07/28 07:48:40;;;;;;;0.00;0.00;;;20.50;99.90;;;;;;5035246;28;20045;-89
2021/07/28 07:51:09;;;;;;;0.10;0.10;;;20.60;99.90;;;;;;5034650;28;20032;-89
2021/07/28 07:53:34;;;;;;;0.10;0.10;;;20.60;99.90;;;;;;5033382;28;20060;-90
2021/07/28 07:56:02;;;;;;;0.00;0.00;;;20.80;99.90;;;;;;5034294;28;20045;-88
2021/07/28 07:58:28;;;;;;;0.10;0.10;;;21.00;99.90;;;;;;5034849;28;20429;-87
2021/07/28 08:00:54;;;;;;;0.00;0.00;;;21.10;99.90;;;;;;5032859;28;20034;-88
2021/07/28 08:03:20;;;;;;;0.00;0.00;;;21.30;99.90;;;;;;5050008;28;20041;-88
2021/07/28 08:05:45;;;;;;;0.00;0.00;;;21.50;99.90;;;;;;5033829;28;20079;-88
2021/07/28 08:08:11;;;;;;;0.10;0.10;;;21.70;99.90;;;;;;5032100;28;20026;-89
2021/07/28 08:10:37;;;;;;;0.00;0.00;;;21.90;99.90;;;;;;5033805;28;20037;-88
2021/07/28 08:13:03;;;;;;;0.00;0.00;;;22.10;99.90;;;;;;5036028;28;20546;-89
2021/07/28 08:15:28;;;;;;;0.00;0.00;;;22.30;99.90;;;;;;5038004;28;20068;-87
2021/07/28 08:17:54;;;;;;;0.00;0.00;;;22.40;99.90;;;;;;5051164;28;20025;-88
2021/07/28 08:20:20;;;;;;;0.00;0.00;;;22.60;99.90;;;;;;5046211;28;20091;-88
2021/07/28 08:22:49;;;;;;;0.08;0.08;;;22.80;99.90;;;;;;5034383;28;20084;-89
2021/07/28 08:25:14;;;;;;;0.00;0.00;;;23.10;99.90;;;;;;5034546;28;20449;-87
2021/07/28 08:27:44;;;;;;;0.00;0.00;;;23.60;99.90;;;;;;5033278;28;20033;-92
2021/07/28 08:30:10;;;;;;;0.00;0.00;;;24.20;99.90;;;;;;5038520;28;20022;-89
2021/07/28 08:32:39;;;;;;;0.00;0.00;;;24.80;99.90;;;;;;5034830;28;20491;-90
2021/07/28 08:35:12;;;;;;;0.00;0.00;;;25.30;99.90;;;;;;5035528;28;20105;-92
2021/07/28 08:37:47;;;;;;;0.00;0.00;;;25.90;99.90;;;;;;5036249;28;20037;-89
2021/07/28 08:40:17;;;;;;;0.00;0.00;;;26.30;99.90;;;;;;5038080;28;20014;-91
2021/07/28 08:42:48;;;;;;;0.00;0.00;;;26.80;99.90;;;;;;5036859;28;20387;-90
2021/07/28 08:45:16;;;;;;;0.00;0.00;;;27.40;99.90;;;;;;5041577;28;20018;-90
2021/07/28 08:47:43;;;;;;;0.00;0.00;;;28.00;99.90;;;;;;5053670;28;20060;-90
2021/07/28 08:50:11;;;;;;;0.00;0.00;;;28.40;99.90;;;;;;5049167;28;20035;-89
2021/07/28 08:52:47;;;;;;;0.00;0.00;;;28.80;98.60;;;;;;5051357;28;20089;-91
2021/07/28 08:55:14;;;;;;;0.00;0.00;;;29.20;98.50;;;;;;5052010;28;20041;-88
2021/07/28 08:57:40;;;;;;;0.00;0.00;;;29.70;94.10;;;;;;5040528;28;20072;-90
2021/07/28 09:00:11;;;;;;;0.00;0.00;;;30.20;92.60;;;;;;5053377;28;20025;-88
2021/07/28 09:02:41;;;;;;;0.00;0.00;;;30.60;92.90;;;;;;5057491;28;20037;-90
2021/07/28 09:05:07;;;;;;;0.00;0.00;;;31.20;91.10;;;;;;5034685;28;20462;-89
2021/07/28 09:07:40;;;;;;;0.00;0.00;;;31.70;92.90;;;;;;5039366;28;20044;-90
2021/07/28 09:10:06;;;;;;;0.00;0.00;;;32.30;81.30;;;;;;5049058;28;20167;-89
2021/07/28 09:12:36;;;;;;;0.00;0.00;;;32.60;88.50;;;;;;5045513;28;20076;-89
2021/07/28 09:15:07;;;;;;;0.00;0.00;;;33.30;90.40;;;;;;5035312;28;20052;-90
2021/07/28 09:17:37;;;;;;;0.00;0.00;;;34.10;85.30;;;;;;5035071;28;20056;-89
2021/07/28 09:20:05;;;;;;;0.10;0.10;;;34.60;77.10;;;;;;5055311;28;20064;-89
2021/07/28 09:22:34;;;;;;;0.00;0.00;;;34.70;75.50;;;;;;5038451;28;20053;-87
2021/07/28 09:25:17;;;;;;;0.00;0.00;;;34.80;79.20;;;;;;5039095;28;20029;-88
2021/07/28 09:27:47;;;;;;;0.00;0.00;;;35.10;70.40;;;;;;5039329;28;20029;-91
2021/07/28 09:30:28;;;;;;;0.00;0.00;;;35.00;71.00;;;;;;5055775;28;20079;-90
2021/07/28 09:33:10;;;;;;;0.00;0.00;;;35.10;73.60;;;;;;5055758;28;20443;-89
2021/07/28 09:35:48;;;;;;;0.00;0.00;;;35.40;70.20;;;;;;5039812;28;20497;-90
2021/07/28 09:38:33;;;;;;;0.00;0.00;;;35.70;72.90;;;;;;5055083;28;20061;-91
2021/07/28 09:41:23;;;;;;;0.05;0.05;;;36.20;74.70;;;;;;5038103;28;20052;-89
2021/07/28 09:44:00;;;;;;;0.00;0.00;;;36.60;72.90;;;;;;5039906;28;20073;-91
2021/07/28 09:46:31;;;;;;;0.00;0.00;;;37.00;73.60;;;;;;5038085;28;20022;-89
2021/07/28 09:48:59;;;;;;;0.10;0.10;;;37.60;76.10;;;;;;5064514;28;20108;-91
2021/07/28 09:51:34;;;;;;;0.10;0.10;;;38.30;68.70;;;;;;5040260;28;20045;-89
2021/07/28 09:54:08;;;;;;;0.10;0.10;;;38.20;65.50;;;;;;5040190;28;20040;-91
2021/07/28 09:56:50;;;;;;;0.10;0.10;;;38.10;70.30;;;;;;5052382;28;20038;-90
2021/07/28 09:59:16;;;;;;;0.10;0.10;;;38.50;67.50;;;;;;5055697;28;20059;-89
2021/07/28 10:01:44;;;;;;;0.10;0.10;;;38.60;63.20;;;;;;5057860;28;20013;-90
2021/07/28 10:04:12;;;;;;;0.10;0.10;;;38.50;61.60;;;;;;5047626;28;20099;-90
2021/07/28 10:06:52;;;;;;;0.10;0.10;;;38.50;62.60;;;;;;5039806;28;20033;-91
2021/07/28 10:09:36;;;;;;;0.10;0.10;;;38.80;61.90;;;;;;5041285;28;20025;-89
2021/07/28 10:12:03;;;;;;;0.10;0.10;;;39.30;61.80;;;;;;5046234;28;20033;-90
2021/07/28 10:14:29;;;;;;;0.10;0.10;;;39.50;59.60;;;;;;5055089;28;20021;-91
2021/07/28 10:16:56;;;;;;;0.10;0.10;;;39.40;55.30;;;;;;5055774;28;20033;-91
2021/07/28 10:19:22;;;;;;;0.10;0.10;;;39.30;52.30;;;;;;5050542;28;20029;-91
2021/07/28 10:21:52;;;;;;;0.08;0.08;;;38.60;53.00;;;;;;5042909;28;20064;-91
2021/07/28 10:24:19;;;;;;;0.05;0.05;;;38.30;53.90;;;;;;5048186;28;20045;-93
2021/07/28 10:26:51;;;;;;;0.10;0.10;;;37.90;54.80;;;;;;5040607;28;20061;-92
2021/07/28 10:29:18;;;;;;;0.10;0.10;;;37.80;56.40;;;;;;5043208;28;20035;-91
2021/07/28 10:31:47;;;;;;;0.08;0.08;;;37.70;56.20;;;;;;5029034;28;20032;-91
2021/07/28 10:34:28;;;;;;;0.00;0.00;;;37.80;56.10;;;;;;5041751;28;20037;-93
2021/07/28 10:37:05;;;;;;;0.10;0.10;;;38.00;56.70;;;;;;5061626;28;20026;-91
2021/07/28 10:39:40;;;;;;;0.10;0.10;;;38.60;55.50;;;;;;5044389;28;20093;-91
2021/07/28 10:42:31;;;;;;;0.08;0.08;;;39.20;55.70;;;;;;5044054;28;20036;-89
2021/07/28 10:45:02;;;;;;;0.00;0.00;;;39.40;52.90;;;;;;5061259;28;20037;-91
2021/07/28 10:47:46;;;;;;;0.10;0.10;;;39.30;54.30;;;;;;5063924;28;20037;-90
2021/07/28 10:50:28;;;;;;;0.10;0.10;;;39.70;52.60;;;;;;5046433;28;20040;-90
2021/07/28 10:53:04;;;;;;;0.10;0.10;;;39.80;51.20;;;;;;5056185;28;20114;-90
2021/07/28 10:55:38;;;;;;;0.10;0.10;;;39.70;50.70;;;;;;5037976;28;20041;-90
2021/07/28 10:58:08;;;;;;;0.05;0.05;;;39.30;50.00;;;;;;5040162;28;20473;-91
2021/07/28 11:00:42;;;;;;;0.10;0.10;;;39.00;51.60;;;;;;5059569;28;20025;-90
2021/07/28 11:03:08;;;;;;;0.10;0.10;;;39.20;51.80;;;;;;5065242;28;20042;-91
2021/07/28 11:05:39;;;;;;;0.10;0.10;;;39.50;50.80;;;;;;5071032;28;20071;-90
2021/07/28 11:08:09;;;;;;;0.10;0.10;;;39.60;48.60;;;;;;5052615;28;20067;-90
2021/07/28 11:10:34;;;;;;;0.05;0.05;;;39.40;48.70;;;;;;5042263;28;20028;-93
2021/07/28 11:13:11;;;;;;;0.10;0.10;;;39.00;49.50;;;;;;5057365;28;20029;-90
2021/07/28 11:15:38;;;;;;;0.10;0.10;;;38.90;49.10;;;;;;5056562;28;20041;-89
2021/07/28 11:18:07;;;;;;;0.10;0.10;;;38.90;49.00;;;;;;5043019;28;20030;-90
2021/07/28 11:20:37;;;;;;;0.00;0.00;;;38.90;49.70;;;;;;5053079;28;20018;-91
2021/07/28 11:23:21;;;;;;;0.10;0.10;;;39.10;49.50;;;;;;5050420;28;20077;-90
2021/07/28 11:25:50;;;;;;;0.10;0.10;;;39.40;49.10;;;;;;5057114;28;20044;-90
2021/07/28 11:28:20;;;;;;;0.00;0.00;;;39.40;48.50;;;;;;5044691;28;20026;-90
2021/07/28 11:31:02;;;;;;;0.05;0.05;;;39.30;49.40;;;;;;5039851;28;20089;-90
2021/07/28 11:33:29;;;;;;;0.10;0.10;;;39.60;49.50;;;;;;5040840;28;20022;-91
2021/07/28 11:35:57;;;;;;;0.10;0.10;;;40.00;49.30;;;;;;5037852;28;20543;-90
2021/07/28 11:38:24;;;;;;;0.10;0.10;;;40.20;48.60;;;;;;5038209;28;20071;-91
2021/07/28 11:40:55;;;;;;;0.10;0.10;;;40.30;48.40;;;;;;5055038;28;20043;-90
2021/07/28 11:43:35;;;;;;;0.10;0.10;;;40.50;48.40;;;;;;5039899;28;20048;-90
2021/07/28 11:46:04;;;;;;;0.10;0.10;;;40.70;48.20;;;;;;5038185;28;20034;-91
2021/07/28 11:48:37;;;;;;;0.10;0.10;;;40.70;48.40;;;;;;5037012;28;20026;-89
2021/07/28 11:51:05;;;;;;;0.10;0.10;;;40.80;48.50;;;;;;5037218;28;20029;-90
2021/07/28 11:53:35;;;;;;;0.10;0.10;;;41.00;48.20;;;;;;5040673;28;20024;-91
2021/07/28 11:56:09;;;;;;;0.10;0.10;;;41.10;47.60;;;;;;5036536;28;20116;-91
2021/07/28 11:58:45;;;;;;;0.10;0.10;;;41.20;47.30;;;;;;5054616;28;20025;-90
2021/07/28 12:01:25;;;;;;;0.10;0.10;;;41.50;47.40;;;;;;5037036;28;20040;-90
2021/07/28 12:03:56;;;;;;;0.10;0.10;;;41.50;47.30;;;;;;5038927;28;20049;-91
2021/07/28 12:06:37;;;;;;;0.10;0.10;;;41.60;47.20;;;;;;5054329;28;20048;-91
2021/07/28 12:09:25;;;;;;;0.10;0.10;;;41.70;47.20;;;;;;5049330;28;20093;-91
2021/07/28 12:12:05;;;;;;;0.10;0.10;;;41.90;46.90;;;;;;5068043;28;20063;-91
2021/07/28 12:14:40;;;;;;;0.10;0.10;;;42.20;46.70;;;;;;5038924;28;20040;-92
2021/07/28 12:17:19;;;;;;;0.10;0.10;;;42.30;46.60;;;;;;5050479;28;20399;-91
2021/07/28 12:20:09;;;;;;;0.10;0.10;;;42.80;46.30;;;;;;5067348;28;20034;-91
2021/07/28 12:22:36;;;;;;;0.10;0.10;;;43.50;44.90;;;;;;5048317;28;20048;-92
2021/07/28 12:25:12;;;;;;;0.10;0.10;;;43.70;44.70;;;;;;5051129;28;20026;-91
2021/07/28 12:27:55;;;;;;;0.10;0.10;;;43.70;44.20;;;;;;5061985;28;20037;-93
2021/07/28 12:30:27;;;;;;;0.10;0.10;;;43.80;44.00;;;;;;5053973;28;20025;-90
2021/07/28 12:33:31;;;;;;;0.10;0.10;;;43.90;44.20;;;;;;5052647;28;20036;-91
2021/07/28 12:36:00;;;;;;;0.10;0.10;;;44.00;43.30;;;;;;5021510;28;20395;-92
2021/07/28 12:38:31;;;;;;;0.10;0.10;;;43.80;43.10;;;;;;5039760;28;20115;-92
2021/07/28 12:41:03;;;;;;;0.10;0.10;;;43.70;43.30;;;;;;5036683;28;20180;-90
2021/07/28 12:43:30;;;;;;;;;;;43.90;43.90;;;;;;5037210;28;20064;-90
2021/07/28 12:46:00;;;;;;;0.10;0.10;;;43.70;43.70;;;;;;5037568;28;20484;-93
2021/07/28 12:48:32;;;;;;;0.10;0.10;;;43.70;43.90;;;;;;5038550;28;20029;-92
2021/07/28 12:51:08;;;;;;;0.10;0.10;;;43.80;43.30;;;;;;5037381;28;20029;-93
2021/07/28 12:53:34;;;;;;;0.10;0.10;;;43.90;42.40;;;;;;5046697;28;20044;-90
2021/07/28 12:56:01;;;;;;;0.10;0.10;;;43.80;41.30;;;;;;5050628;28;20059;-92
2021/07/28 12:58:38;;;;;;;0.10;0.10;;;44.00;41.80;;;;;;5049424;28;20037;-93
2021/07/28 13:01:04;;;;;;;0.13;0.13;;;44.40;41.40;;;;;;5045622;28;20049;-91
2021/07/28 13:03:31;;;;;;;0.10;0.10;;;44.60;41.10;;;;;;5047909;28;20094;-93
2021/07/28 13:06:22;;;;;;;0.10;0.10;;;45.00;40.70;;;;;;5048479;28;20024;-91